createdAt,value
2023-04-13T00:00:10.973Z,97728.69
2023-04-13T00:02:39.509Z,97732.47
2023-04-13T00:05:09.288Z,97724.53
2023-04-13T00:07:38.915Z,97722.94
2023-04-13T00:10:08.729Z,97718.63
2023-04-13T00:12:38.071Z,97731.09
2023-04-13T00:15:06.722Z,97725.06
2023-04-13T00:17:34.654Z,97719.41
2023-04-13T00:20:08.165Z,97714.06
2023-04-13T00:22:35.788Z,97705.78
2023-04-13T00:25:03.539Z,97714.16
2023-04-13T00:27:31.271Z,97715.72
2023-04-13T00:30:00.223Z,97715.25
2023-04-13T00:32:27.818Z,97709.56
2023-04-13T00:34:55.625Z,97710.56
2023-04-13T00:37:23.275Z,97704.88
2023-04-13T00:39:51.620Z,97713.63
2023-04-13T00:42:19.914Z,97708.34
2023-04-13T00:44:47.696Z,97699.72
2023-04-13T00:47:18.528Z,97695.56
2023-04-13T00:49:46.113Z,97703.78
2023-04-13T00:52:14.071Z,97699.50
2023-04-13T00:54:42.457Z,97701.25
2023-04-13T00:57:10.103Z,97703.09
2023-04-13T00:59:37.824Z,97704.09
2023-04-13T01:02:07.597Z,97692.94
2023-04-13T01:04:37.624Z,97701.22
2023-04-13T01:07:09.725Z,97696.31
2023-04-13T01:09:41.781Z,97698.63
2023-04-13T01:12:13.163Z,97694.09
2023-04-13T01:14:43.233Z,97690.56
2023-04-13T01:17:15.363Z,97688.78
2023-04-13T01:19:51.605Z,97687.09
2023-04-13T01:22:22.637Z,97693.09
2023-04-13T01:25:05.748Z,97695.16
2023-04-13T01:27:44.555Z,97688.59
2023-04-13T01:30:13.350Z,97688.94
2023-04-13T01:32:42.037Z,97696.31
2023-04-13T01:35:10.779Z,97697.06
2023-04-13T01:37:39.145Z,97693.53
2023-04-13T01:40:10.211Z,97692.63
2023-04-13T01:42:39.420Z,97691.00
2023-04-13T01:45:13.031Z,97689.56
2023-04-13T01:47:43.497Z,97684.69
2023-04-13T01:50:15.280Z,97696.56
2023-04-13T01:52:44.093Z,97693.84
2023-04-13T01:55:13.588Z,97684.53
2023-04-13T01:57:47.176Z,97687.84
2023-04-13T02:00:16.308Z,97697.78
2023-04-13T02:02:45.173Z,97693.38
2023-04-13T02:05:12.964Z,97713.69
2023-04-13T02:07:41.704Z,97713.25
2023-04-13T02:10:10.186Z,97717.63
2023-04-13T02:12:37.933Z,97716.41
2023-04-13T02:15:08.105Z,97727.72
2023-04-13T02:17:36.849Z,97723.19
2023-04-13T02:20:11.141Z,97729.13
2023-04-13T02:22:41.381Z,97729.09
2023-04-13T02:25:11.302Z,97735.47
2023-04-13T02:27:39.610Z,97735.31
2023-04-13T02:30:09.937Z,97730.38
2023-04-13T02:32:39.565Z,97733.34
2023-04-13T02:35:09.818Z,97726.41
2023-04-13T02:37:39.336Z,97721.31
2023-04-13T02:40:10.243Z,97731.47
2023-04-13T02:42:38.454Z,97722.78
2023-04-13T02:45:12.059Z,97731.38
2023-04-13T02:47:40.338Z,97722.16
2023-04-13T02:50:09.454Z,97721.47
2023-04-13T02:52:37.193Z,97716.91
2023-04-13T02:55:05.695Z,97716.69
2023-04-13T02:57:34.191Z,97713.84
2023-04-13T03:00:01.816Z,97714.53
2023-04-13T03:02:31.175Z,97710.38
2023-04-13T03:04:59.542Z,97705.44
2023-04-13T03:07:27.167Z,97704.69
2023-04-13T03:09:55.403Z,97715.91
2023-04-13T03:12:22.974Z,97717.63
2023-04-13T03:14:51.535Z,97727.00
2023-04-13T03:17:19.938Z,97725.00
2023-04-13T03:19:49.537Z,97724.63
2023-04-13T03:22:17.435Z,97720.31
2023-04-13T03:24:45.054Z,97727.25
2023-04-13T03:27:12.614Z,97727.16
2023-04-13T03:29:40.246Z,97730.56
2023-04-13T03:32:08.160Z,97725.84
2023-04-13T03:34:35.839Z,97718.47
2023-04-13T03:37:04.742Z,97734.41
2023-04-13T03:39:32.301Z,97730.78
2023-04-13T03:41:59.866Z,97732.31
2023-04-13T03:44:27.454Z,97724.69
2023-04-13T03:46:55.088Z,97728.84
2023-04-13T03:49:22.738Z,97717.69
2023-04-13T03:51:50.927Z,97726.16
2023-04-13T03:54:19.867Z,97718.97
2023-04-13T03:56:47.488Z,97712.28
2023-04-13T03:59:15.231Z,97701.13
2023-04-13T04:01:42.911Z,97712.22
2023-04-13T04:04:10.840Z,97710.34
2023-04-13T04:06:38.490Z,97708.25
2023-04-13T04:09:06.730Z,97706.19
2023-04-13T04:11:35.771Z,97714.81
2023-04-13T04:14:04.592Z,97708.91
2023-04-13T04:16:32.593Z,97714.97
2023-04-13T04:19:00.198Z,97709.81
2023-04-13T04:21:34.358Z,97717.00
2023-04-13T04:24:02.176Z,97726.38
2023-04-13T04:26:30.172Z,97722.69
2023-04-13T04:29:02.121Z,97726.84
2023-04-13T04:31:36.760Z,97729.38
2023-04-13T04:34:05.014Z,97725.53
2023-04-13T04:36:32.558Z,97729.69
2023-04-13T04:39:02.617Z,97736.31
2023-04-13T04:41:31.429Z,97742.16
2023-04-13T04:44:03.394Z,97740.84
2023-04-13T04:46:31.261Z,97745.25
2023-04-13T04:49:00.759Z,97742.47
2023-04-13T04:51:28.545Z,97749.16
2023-04-13T04:53:58.685Z,97753.78
2023-04-13T04:56:27.044Z,97758.72
2023-04-13T04:58:54.736Z,97767.28
2023-04-13T05:01:26.519Z,97773.34
2023-04-13T05:03:54.617Z,97764.03
2023-04-13T05:06:22.531Z,97765.19
2023-04-13T05:08:50.152Z,97758.41
2023-04-13T05:11:17.792Z,97757.25
2023-04-13T05:13:45.410Z,97762.41
2023-04-13T05:16:13.124Z,97765.19
2023-04-13T05:18:48.824Z,97759.88
2023-04-13T05:21:17.653Z,97769.19
2023-04-13T05:23:45.448Z,97776.13
2023-04-13T05:26:13.873Z,97771.75
2023-04-13T05:28:41.809Z,97778.34
2023-04-13T05:31:12.506Z,97789.84
2023-04-13T05:33:40.187Z,97783.13
2023-04-13T05:36:10.016Z,97791.06
2023-04-13T05:38:37.635Z,97786.91
2023-04-13T05:41:05.504Z,97805.25
2023-04-13T05:43:33.160Z,97805.16
2023-04-13T05:46:00.823Z,97810.03
2023-04-13T05:48:28.564Z,97804.78
2023-04-13T05:50:58.208Z,97818.88
2023-04-13T05:53:27.295Z,97818.41
2023-04-13T05:55:55.341Z,97823.59
2023-04-13T05:58:22.996Z,97823.88
2023-04-13T06:00:50.678Z,97824.13
2023-04-13T06:03:20.622Z,97818.50
2023-04-13T06:05:49.328Z,97827.50
2023-04-13T06:08:17.146Z,97834.84
2023-04-13T06:10:46.128Z,97832.66
2023-04-13T06:13:13.832Z,97839.81
2023-04-13T06:15:41.507Z,97829.66
2023-04-13T06:18:09.216Z,97835.13
2023-04-13T06:20:36.885Z,97839.03
2023-04-13T06:23:04.502Z,97839.63
2023-04-13T06:25:32.390Z,97849.81
2023-04-13T06:28:04.373Z,97846.50
2023-04-13T06:30:31.957Z,97848.31
2023-04-13T06:32:59.627Z,97855.41
2023-04-13T06:35:27.355Z,97860.81
2023-04-13T06:37:55.731Z,97857.75
2023-04-13T06:40:23.378Z,97854.25
2023-04-13T06:42:51.075Z,97844.19
2023-04-13T06:45:20.614Z,97854.72
2023-04-13T06:47:48.788Z,97856.00
2023-04-13T06:50:17.042Z,97853.97
2023-04-13T06:52:45.764Z,97846.75
2023-04-13T06:55:13.494Z,97856.50
2023-04-13T06:57:41.882Z,97856.41
2023-04-13T07:00:26.052Z,97854.47
2023-04-13T07:02:58.226Z,97850.41
2023-04-13T07:05:26.221Z,97865.69
2023-04-13T07:07:54.000Z,97856.84
2023-04-13T07:10:21.893Z,97862.22
2023-04-13T07:12:49.680Z,97864.31
2023-04-13T07:15:17.459Z,97871.81
2023-04-13T07:17:45.217Z,97878.84
2023-04-13T07:20:14.603Z,97857.19
2023-04-13T07:22:42.180Z,97875.84
2023-04-13T07:25:10.231Z,97876.16
2023-04-13T07:27:37.904Z,97871.59
2023-04-13T07:30:08.396Z,97869.56
2023-04-13T07:32:36.071Z,97864.97
2023-04-13T07:35:03.977Z,97867.94
2023-04-13T07:37:33.030Z,97869.47
2023-04-13T07:40:00.626Z,97875.47
2023-04-13T07:42:28.352Z,97867.50
2023-04-13T07:44:56.437Z,97875.03
2023-04-13T07:47:24.087Z,97879.22
2023-04-13T07:49:51.702Z,97886.25
2023-04-13T07:52:20.674Z,97880.16
2023-04-13T07:54:49.709Z,97885.13
2023-04-13T07:57:21.302Z,97885.81
2023-04-13T07:59:52.162Z,97894.81
2023-04-13T08:02:22.503Z,97900.81
2023-04-13T08:04:50.783Z,97886.41
2023-04-13T08:07:18.687Z,97903.84
2023-04-13T08:09:48.655Z,97904.06
2023-04-13T08:12:17.905Z,97896.28
2023-04-13T08:14:45.608Z,97918.63
2023-04-13T08:17:13.360Z,97916.38
2023-04-13T08:19:41.146Z,97917.94
2023-04-13T08:22:10.795Z,97919.88
2023-04-13T08:24:38.683Z,97919.25
2023-04-13T08:27:07.908Z,97928.09
2023-04-13T08:29:36.814Z,97935.41
2023-04-13T08:32:04.887Z,97934.22
2023-04-13T08:34:32.640Z,97942.88
2023-04-13T08:37:00.272Z,97937.97
2023-04-13T08:39:27.879Z,97946.50
2023-04-13T08:41:56.725Z,97942.66
2023-04-13T08:44:24.799Z,97939.00
2023-04-13T08:46:53.801Z,97937.94
2023-04-13T08:49:21.527Z,97944.09
2023-04-13T08:51:50.089Z,97945.06
2023-04-13T08:54:17.681Z,97947.75
2023-04-13T08:56:47.219Z,97949.22
2023-04-13T08:59:16.273Z,97949.63
2023-04-13T09:01:44.838Z,97944.94
2023-04-13T09:04:17.814Z,97952.56
2023-04-13T09:06:47.960Z,97953.06
2023-04-13T09:09:15.838Z,97950.66
2023-04-13T09:11:45.736Z,97960.25
2023-04-13T09:14:13.655Z,97956.22
2023-04-13T09:16:42.049Z,97958.38
2023-04-13T09:19:10.473Z,97957.53
2023-04-13T09:21:40.432Z,97969.66
2023-04-13T09:24:08.581Z,97971.72
2023-04-13T09:26:43.226Z,97967.34
2023-04-13T09:29:13.850Z,97970.28
2023-04-13T09:31:44.939Z,97975.50
2023-04-13T09:34:13.714Z,97973.63
2023-04-13T09:36:54.223Z,97975.34
2023-04-13T09:39:28.602Z,97976.75
2023-04-13T09:41:58.101Z,97982.81
2023-04-13T09:44:28.768Z,97975.97
2023-04-13T09:46:59.963Z,97981.66
2023-04-13T09:49:27.866Z,97981.00
2023-04-13T09:51:57.368Z,97993.16
2023-04-13T09:54:25.083Z,97980.88
2023-04-13T09:56:54.619Z,97986.94
2023-04-13T09:59:23.724Z,97990.25
2023-04-13T10:01:51.715Z,97988.13
2023-04-13T10:04:19.444Z,97987.38
2023-04-13T10:06:48.334Z,97987.31
2023-04-13T10:09:17.339Z,97984.00
2023-04-13T10:11:47.090Z,97981.47
2023-04-13T10:14:17.082Z,97978.75
2023-04-13T10:16:59.655Z,97976.31
2023-04-13T10:19:30.874Z,97986.63
2023-04-13T10:21:58.858Z,97969.34
2023-04-13T10:24:28.776Z,97984.41
2023-04-13T10:26:58.582Z,97983.19
2023-04-13T10:29:29.736Z,97990.63
2023-04-13T10:32:03.937Z,97987.19
2023-04-13T10:34:34.092Z,98005.66
2023-04-13T10:37:03.993Z,97995.41
2023-04-13T10:39:34.962Z,97987.03
2023-04-13T10:42:03.648Z,97996.38
2023-04-13T10:44:42.280Z,97991.69
2023-04-13T10:47:11.187Z,97994.19
2023-04-13T10:49:42.579Z,97984.13
2023-04-13T10:52:11.279Z,97985.06
2023-04-13T10:54:41.193Z,97996.41
2023-04-13T10:57:11.057Z,97995.06
2023-04-13T10:59:55.636Z,97989.72
2023-04-13T11:02:26.112Z,97987.22
2023-04-13T11:04:54.219Z,97994.34
2023-04-13T11:07:23.805Z,97990.09
2023-04-13T11:10:02.821Z,97990.38
2023-04-13T11:12:31.200Z,97982.91
2023-04-13T11:14:59.030Z,97986.88
2023-04-13T11:17:27.073Z,97990.03
2023-04-13T11:19:56.213Z,97976.28
2023-04-13T11:22:27.643Z,97979.84
2023-04-13T11:25:07.306Z,97985.22
2023-04-13T11:27:34.971Z,97982.31
2023-04-13T11:30:06.044Z,97975.38
2023-04-13T11:32:34.218Z,97978.28
2023-04-13T11:35:09.404Z,97971.06
2023-04-13T11:37:38.414Z,97965.34
2023-04-13T11:40:15.040Z,97978.41
2023-04-13T11:42:44.580Z,97973.44
2023-04-13T11:45:14.659Z,97969.59
2023-04-13T11:47:42.416Z,97969.00
2023-04-13T11:50:10.538Z,97975.88
2023-04-13T11:52:39.167Z,97974.84
2023-04-13T11:55:21.598Z,97969.72
2023-04-13T11:57:51.058Z,97977.94
2023-04-13T12:00:23.986Z,97977.16
2023-04-13T12:03:02.067Z,97987.72
2023-04-13T12:05:32.844Z,97986.13
2023-04-13T12:08:04.239Z,97991.84
2023-04-13T12:10:42.327Z,97998.81
2023-04-13T12:16:02.308Z,97998.53
2023-04-13T12:18:43.102Z,97997.56
2023-04-13T12:21:16.260Z,97994.03
2023-04-13T12:23:53.188Z,97990.34
2023-04-13T12:28:56.427Z,97983.06
2023-04-13T12:31:24.265Z,97986.53
2023-04-13T12:33:52.250Z,97975.16
2023-04-13T12:36:19.863Z,97997.41
2023-04-13T12:38:47.469Z,97995.00
2023-04-13T12:41:15.021Z,98002.47
2023-04-13T12:43:44.114Z,98011.19
2023-04-13T12:46:11.705Z,98018.78
2023-04-13T12:48:39.429Z,98021.50
2023-04-13T12:51:07.103Z,98020.69
2023-04-13T12:53:35.424Z,98038.06
2023-04-13T12:56:03.452Z,98032.88
2023-04-13T12:58:31.666Z,98024.13
2023-04-13T13:01:01.299Z,98033.75
2023-04-13T13:03:28.958Z,98025.72
2023-04-13T13:05:57.304Z,98020.09
2023-04-13T13:08:24.879Z,98014.69
2023-04-13T13:10:52.588Z,98014.31
2023-04-13T13:13:20.260Z,98015.91
2023-04-13T13:15:47.853Z,98010.59
2023-04-13T13:18:16.842Z,98014.84
2023-04-13T13:20:45.544Z,98019.31
2023-04-13T13:23:13.562Z,98016.97
2023-04-13T13:25:52.447Z,98012.41
2023-04-13T13:28:30.332Z,98015.38
2023-04-13T13:30:58.070Z,98023.44
2023-04-13T13:33:27.021Z,98020.63
2023-04-13T13:35:54.633Z,98022.69
2023-04-13T13:38:22.301Z,98018.66
2023-04-13T13:40:49.946Z,98021.69
2023-04-13T13:43:21.380Z,98013.72
2023-04-13T13:45:49.107Z,98012.50
2023-04-13T13:48:16.846Z,98009.50
2023-04-13T13:50:45.893Z,98002.38
2023-04-13T13:53:13.708Z,98000.69
2023-04-13T13:55:41.577Z,97991.19
2023-04-13T13:58:09.242Z,97987.63
2023-04-13T14:00:36.913Z,98000.38
2023-04-13T14:03:04.711Z,98000.94
2023-04-13T14:05:32.420Z,97992.91
2023-04-13T14:08:01.409Z,97997.75
2023-04-13T14:10:29.089Z,98013.66
2023-04-13T14:13:00.015Z,98037.72
2023-04-13T14:15:27.721Z,98016.50
2023-04-13T14:18:09.084Z,98013.81
2023-04-13T14:20:39.918Z,98024.06
2023-04-13T14:23:10.032Z,98021.97
2023-04-13T14:25:38.485Z,98023.41
2023-04-13T14:28:06.963Z,98020.06
2023-04-13T14:30:34.620Z,98014.00
2023-04-13T14:33:02.438Z,98011.75
2023-04-13T14:35:30.088Z,98015.41
2023-04-13T14:37:57.852Z,98013.38
2023-04-13T14:40:28.218Z,98013.50
2023-04-13T14:42:55.902Z,98020.84
2023-04-13T14:45:23.907Z,98021.72
2023-04-13T14:47:53.612Z,98043.72
2023-04-13T14:50:21.549Z,98039.69
2023-04-13T14:52:50.084Z,98048.47
2023-04-13T14:55:18.269Z,98054.75
2023-04-13T14:57:47.332Z,98063.66
2023-04-13T15:00:21.499Z,98058.47
2023-04-13T15:02:50.487Z,98066.38
2023-04-13T15:05:18.717Z,98066.78
2023-04-13T15:07:47.164Z,98081.78
2023-04-13T15:10:14.859Z,98057.00
2023-04-13T15:12:43.955Z,98080.06
2023-04-13T15:15:13.201Z,98083.66
2023-04-13T15:17:40.795Z,98085.97
2023-04-13T15:20:10.535Z,98087.63
2023-04-13T15:22:38.353Z,98088.91
2023-04-13T15:25:07.094Z,98088.94
2023-04-13T15:27:35.297Z,98084.44
2023-04-13T15:30:03.292Z,98079.56
2023-04-13T15:32:34.744Z,98082.66
2023-04-13T15:35:02.440Z,98074.84
2023-04-13T15:37:30.066Z,98072.06
2023-04-13T15:39:57.748Z,98062.28
2023-04-13T15:42:26.198Z,98070.66
2023-04-13T15:44:55.052Z,98061.50
2023-04-13T15:47:23.467Z,98065.25
2023-04-13T15:49:52.427Z,98066.69
2023-04-13T15:52:20.029Z,98066.22
2023-04-13T15:54:47.757Z,98066.97
2023-04-13T15:57:15.688Z,98069.97
2023-04-13T15:59:43.367Z,98075.78
2023-04-13T16:02:11.184Z,98073.06
2023-04-13T16:04:39.095Z,98071.91
2023-04-13T16:07:13.616Z,98069.75
2023-04-13T16:09:44.836Z,98076.25
2023-04-13T16:12:12.539Z,98080.97
2023-04-13T16:14:41.911Z,98086.13
2023-04-13T16:17:10.284Z,98094.97
2023-04-13T16:19:38.125Z,98098.84
2023-04-13T16:22:06.435Z,98109.97
2023-04-13T16:24:35.810Z,98109.22
2023-04-13T16:27:03.460Z,98107.25
2023-04-13T16:29:32.361Z,98116.09
2023-04-13T16:31:59.983Z,98106.38
2023-04-13T16:34:28.572Z,98120.22
2023-04-13T16:36:56.179Z,98119.13
2023-04-13T16:39:23.790Z,98127.19
2023-04-13T16:41:52.799Z,98129.19
2023-04-13T16:44:20.472Z,98128.56
2023-04-13T16:46:48.043Z,98135.44
2023-04-13T16:49:15.684Z,98140.50
2023-04-13T16:51:43.390Z,98144.94
2023-04-13T16:54:13.665Z,98132.50
2023-04-13T16:56:41.382Z,98141.47
2023-04-13T16:59:10.261Z,98138.44
2023-04-13T17:01:39.745Z,98138.06
2023-04-13T17:04:07.743Z,98137.78
2023-04-13T17:06:37.283Z,98140.50
2023-04-13T17:09:05.210Z,98129.59
2023-04-13T17:11:32.859Z,98134.59
2023-04-13T17:14:00.506Z,98142.97
2023-04-13T17:16:30.059Z,98134.66
2023-04-13T17:18:57.981Z,98137.56
2023-04-13T17:21:25.830Z,98134.56
2023-04-13T17:23:53.399Z,98141.34
2023-04-13T17:26:20.989Z,98136.91
2023-04-13T17:28:48.501Z,98133.94
2023-04-13T17:31:16.600Z,98140.25
2023-04-13T17:33:46.213Z,98141.81
2023-04-13T17:36:14.836Z,98139.63
2023-04-13T17:38:42.418Z,98145.25
2023-04-13T17:41:10.479Z,98152.84
2023-04-13T17:43:39.479Z,98156.00
2023-04-13T17:46:08.397Z,98152.72
2023-04-13T17:48:36.140Z,98158.81
2023-04-13T17:51:07.580Z,98161.47
2023-04-13T17:53:36.313Z,98162.22
2023-04-13T17:56:03.989Z,98159.84
2023-04-13T17:58:31.614Z,98177.00
2023-04-13T18:00:59.169Z,98175.03
2023-04-13T18:03:27.198Z,98179.09
2023-04-13T18:05:55.006Z,98179.59
2023-04-13T18:08:23.935Z,98182.06
2023-04-13T18:10:51.488Z,98188.59
2023-04-13T18:13:19.132Z,98194.69
2023-04-13T18:15:49.819Z,98189.50
2023-04-13T18:18:17.732Z,98198.31
2023-04-13T18:20:46.740Z,98204.34
2023-04-13T18:23:14.377Z,98199.34
2023-04-13T18:25:43.296Z,98210.09
2023-04-13T18:28:11.044Z,98209.69
2023-04-13T18:30:38.828Z,98211.44
2023-04-13T18:33:06.495Z,98220.19
2023-04-13T18:35:35.024Z,98226.38
2023-04-13T18:38:02.656Z,98236.00
2023-04-13T18:40:30.351Z,98238.94
2023-04-13T18:43:02.081Z,98235.41
2023-04-13T18:45:29.709Z,98243.34
2023-04-13T18:47:57.377Z,98239.56
2023-04-13T18:50:26.465Z,98244.66
2023-04-13T18:52:54.088Z,98246.94
2023-04-13T18:55:23.110Z,98244.19
2023-04-13T18:57:51.888Z,98244.63
2023-04-13T19:00:21.340Z,98251.88
2023-04-13T19:02:49.688Z,98248.25
2023-04-13T19:05:18.155Z,98263.06
2023-04-13T19:07:58.655Z,98259.69
2023-04-13T19:10:27.777Z,98271.34
2023-04-13T19:12:55.776Z,98266.59
2023-04-13T19:15:24.990Z,98269.63
2023-04-13T19:17:53.234Z,98282.19
2023-04-13T19:20:22.945Z,98278.13
2023-04-13T19:22:50.692Z,98283.00
2023-04-13T19:25:18.336Z,98283.28
2023-04-13T19:27:47.204Z,98284.34
2023-04-13T19:30:16.121Z,98282.06
2023-04-13T19:32:47.262Z,98271.31
2023-04-13T19:35:14.885Z,98266.53
2023-04-13T19:37:42.668Z,98269.75
2023-04-13T19:40:13.505Z,98268.03
2023-04-13T19:42:42.406Z,98269.22
2023-04-13T19:45:10.776Z,98267.88
2023-04-13T19:47:39.099Z,98273.88
2023-04-13T19:50:10.375Z,98277.34
2023-04-13T19:52:38.970Z,98275.34
2023-04-13T19:55:07.526Z,98285.69
2023-04-13T19:57:36.704Z,98281.75
2023-04-13T20:00:16.803Z,98282.88
2023-04-13T20:02:46.983Z,98281.63
2023-04-13T20:05:16.840Z,98276.06
2023-04-13T20:07:44.527Z,98277.69
2023-04-13T20:10:13.038Z,98272.91
2023-04-13T20:12:40.676Z,98267.81
2023-04-13T20:15:09.014Z,98275.53
2023-04-13T20:17:36.715Z,98268.34
2023-04-13T20:20:06.404Z,98283.47
2023-04-13T20:22:35.384Z,98275.81
2023-04-13T20:25:03.432Z,98277.25
2023-04-13T20:27:31.033Z,98282.75
2023-04-13T20:29:58.548Z,98295.91
2023-04-13T20:32:26.383Z,98282.28
2023-04-13T20:34:55.428Z,98291.13
2023-04-13T20:37:23.065Z,98297.28
2023-04-13T20:39:52.804Z,98284.19
2023-04-13T20:42:21.776Z,98277.94
2023-04-13T20:44:57.092Z,98278.66
2023-04-13T20:47:25.748Z,98283.91
2023-04-13T20:49:57.018Z,98282.84
2023-04-13T20:52:25.818Z,98288.47
2023-04-13T20:54:55.391Z,98289.25
2023-04-13T20:57:23.428Z,98292.88
2023-04-13T20:59:51.764Z,98284.78
2023-04-13T21:02:19.535Z,98290.09
2023-04-13T21:04:47.229Z,98294.66
2023-04-13T21:07:16.281Z,98298.91
2023-04-13T21:09:44.356Z,98297.78
2023-04-13T21:12:13.277Z,98308.25
2023-04-13T21:14:41.136Z,98304.31
2023-04-13T21:17:08.683Z,98290.91
2023-04-13T21:19:37.820Z,98293.09
2023-04-13T21:22:06.018Z,98293.41
2023-04-13T21:24:33.628Z,98294.31
2023-04-13T21:27:01.264Z,98293.75
2023-04-13T21:29:30.187Z,98299.78
2023-04-13T21:31:58.061Z,98303.44
2023-04-13T21:34:27.214Z,98312.13
2023-04-13T21:36:54.861Z,98315.03
2023-04-13T21:39:22.428Z,98306.97
2023-04-13T21:41:49.965Z,98314.91
2023-04-13T21:44:29.217Z,98311.69
2023-04-13T21:46:59.249Z,98308.72
2023-04-13T21:49:27.147Z,98315.44
2023-04-13T21:51:54.703Z,98307.38
2023-04-13T21:54:22.259Z,98332.88
2023-04-13T21:56:50.026Z,98318.75
2023-04-13T21:59:17.587Z,98330.28
2023-04-13T22:01:45.838Z,98334.66
2023-04-13T22:04:15.370Z,98330.22
2023-04-13T22:06:43.196Z,98318.50
2023-04-13T22:09:12.306Z,98320.03
2023-04-13T22:11:40.900Z,98320.78
2023-04-13T22:14:08.588Z,98327.78
2023-04-13T22:16:36.231Z,98322.88
2023-04-13T22:19:03.933Z,98323.22
2023-04-13T22:21:35.355Z,98328.84
2023-04-13T22:24:03.063Z,98329.69
2023-04-13T22:26:31.089Z,98328.94
2023-04-13T22:28:58.973Z,98327.59
2023-04-13T22:31:26.935Z,98329.34
2023-04-13T22:33:54.581Z,98322.81
2023-04-13T22:36:22.450Z,98321.97
2023-04-13T22:38:51.937Z,98330.25
2023-04-13T22:41:19.906Z,98330.78
2023-04-13T22:43:47.714Z,98334.06
2023-04-13T22:46:15.669Z,98336.63
2023-04-13T22:48:43.422Z,98337.16
2023-04-13T22:51:11.058Z,98345.66
2023-04-13T22:53:38.824Z,98345.53
2023-04-13T22:56:08.597Z,98359.84
2023-04-13T22:58:36.513Z,98355.13
2023-04-13T23:01:04.601Z,98352.78
2023-04-13T23:03:32.393Z,98357.91
2023-04-13T23:06:00.297Z,98349.28
2023-04-13T23:08:29.246Z,98348.47
2023-04-13T23:10:57.077Z,98352.03
2023-04-13T23:13:26.310Z,98349.19
2023-04-13T23:16:00.152Z,98346.44
2023-04-13T23:18:28.159Z,98348.09
2023-04-13T23:20:55.846Z,98349.41
2023-04-13T23:23:23.707Z,98341.63
2023-04-13T23:25:51.382Z,98342.88
2023-04-13T23:28:18.995Z,98340.78
2023-04-13T23:30:47.982Z,98344.38
2023-04-13T23:33:15.783Z,98339.25
2023-04-13T23:35:43.353Z,98355.66
2023-04-13T23:38:10.944Z,98352.03
2023-04-13T23:40:38.561Z,98360.13
2023-04-13T23:43:06.132Z,98357.56
2023-04-13T23:45:33.830Z,98358.47
2023-04-13T23:48:03.888Z,98360.22
2023-04-13T23:50:31.763Z,98356.72
2023-04-13T23:52:59.666Z,98355.81
2023-04-13T23:55:27.438Z,98356.50
2023-04-13T23:57:55.013Z,98359.94
